ALT15 LEVC-LEAS
Flight info
| Callsign | ALT15 |
|---|---|
| Flight time | 1h 13m |
| Altitude | 32000 |
| Route | CENTA N733 ZMR DCT VETAN DCT OMESI M30 XONDA |
| Aircraft | E190/M-SDE3GILORVW/S |
Departure
| Time | 2026-04-21 13:22 |
|---|---|
| Airport | Valencia Airport (LEVC) |
Arrival
| Time | 2026-04-21 14:35 |
|---|---|
| Airport | Asturias Airport (LEAS) |
| Time | Latitude | Longitude | Altitude | Speed | Heading |
|---|---|---|---|---|---|
| 2026-04-21 13:20 | 39.49638 | -0.50012 | 232 ft | 0 kts | 117° |
| 2026-04-21 13:21 | 39.49627 | -0.49985 | 232 ft | 9 kts | 117° |
| 2026-04-21 13:21 | 39.49483 | -0.49609 | 229 ft | 82 kts | 117° |
| 2026-04-21 13:21 | 39.49149 | -0.48692 | 217 ft | 140 kts | 115° |
| 2026-04-21 13:21 | 39.48626 | -0.47482 | 396 ft | 169 kts | 122° |
| 2026-04-21 13:22 | 39.47940 | -0.46160 | 948 ft | 177 kts | 124° |
| 2026-04-21 13:22 | 39.47277 | -0.44918 | 1761 ft | 172 kts | 124° |
| 2026-04-21 13:22 | 39.46545 | -0.43563 | 2208 ft | 195 kts | 126° |
| 2026-04-21 13:22 | 39.45724 | -0.42078 | 2760 ft | 212 kts | 126° |
| 2026-04-21 13:23 | 39.44849 | -0.40518 | 3469 ft | 219 kts | 127° |
| 2026-04-21 13:23 | 39.43963 | -0.38950 | 4235 ft | 221 kts | 127° |
| 2026-04-21 13:23 | 39.43035 | -0.37318 | 4812 ft | 234 kts | 127° |
| 2026-04-21 13:23 | 39.41843 | -0.35734 | 5106 ft | 260 kts | 153° |
| 2026-04-21 13:24 | 39.40047 | -0.35280 | 5697 ft | 274 kts | 188° |
| 2026-04-21 13:24 | 39.38325 | -0.36284 | 6516 ft | 282 kts | 221° |
| 2026-04-21 13:24 | 39.37312 | -0.38395 | 7429 ft | 285 kts | 255° |
| 2026-04-21 13:24 | 39.37073 | -0.40911 | 8406 ft | 285 kts | 264° |
| 2026-04-21 13:25 | 39.36876 | -0.43407 | 9346 ft | 284 kts | 263° |
| 2026-04-21 13:25 | 39.36653 | -0.45939 | 10252 ft | 286 kts | 263° |
| 2026-04-21 13:25 | 39.36417 | -0.48494 | 11042 ft | 292 kts | 263° |
| 2026-04-21 13:25 | 39.36170 | -0.51109 | 11699 ft | 303 kts | 263° |
| 2026-04-21 13:26 | 39.35910 | -0.53833 | 12331 ft | 314 kts | 263° |
| 2026-04-21 13:26 | 39.35636 | -0.56680 | 13077 ft | 322 kts | 263° |
| 2026-04-21 13:26 | 39.35359 | -0.59551 | 13949 ft | 326 kts | 263° |
| 2026-04-21 13:26 | 39.35385 | -0.62427 | 14790 ft | 329 kts | 284° |
| 2026-04-21 13:27 | 39.36439 | -0.65034 | 15628 ft | 335 kts | 309° |
| 2026-04-21 13:27 | 39.38157 | -0.67040 | 16474 ft | 339 kts | 319° |
| 2026-04-21 13:27 | 39.40016 | -0.68931 | 17287 ft | 342 kts | 320° |
| 2026-04-21 13:27 | 39.41903 | -0.70785 | 18055 ft | 346 kts | 320° |
| 2026-04-21 13:28 | 39.43816 | -0.72639 | 18804 ft | 350 kts | 321° |
| 2026-04-21 13:28 | 39.45771 | -0.74524 | 19485 ft | 354 kts | 321° |
| 2026-04-21 13:28 | 39.47751 | -0.76431 | 20191 ft | 358 kts | 321° |
| 2026-04-21 13:28 | 39.49739 | -0.78346 | 20874 ft | 361 kts | 321° |
| 2026-04-21 13:29 | 39.51776 | -0.80309 | 21547 ft | 365 kts | 321° |
| 2026-04-21 13:29 | 39.53796 | -0.82256 | 22218 ft | 368 kts | 321° |
| 2026-04-21 13:29 | 39.55867 | -0.84254 | 22900 ft | 372 kts | 321° |
| 2026-04-21 13:29 | 39.57932 | -0.86248 | 23563 ft | 375 kts | 321° |
| 2026-04-21 13:30 | 39.60030 | -0.88274 | 24200 ft | 378 kts | 321° |
| 2026-04-21 13:30 | 39.62148 | -0.90323 | 24821 ft | 382 kts | 321° |
| 2026-04-21 13:30 | 39.64277 | -0.92383 | 25411 ft | 385 kts | 321° |
| 2026-04-21 13:30 | 39.66436 | -0.94474 | 25985 ft | 388 kts | 321° |
| 2026-04-21 13:31 | 39.68597 | -0.96569 | 26533 ft | 392 kts | 320° |
| 2026-04-21 13:31 | 39.70637 | -0.98868 | 27043 ft | 391 kts | 306° |
| 2026-04-21 13:31 | 39.72104 | -1.01837 | 27562 ft | 392 kts | 297° |
| 2026-04-21 13:31 | 39.73453 | -1.04900 | 28093 ft | 395 kts | 297° |
| 2026-04-21 13:32 | 39.74802 | -1.07984 | 28637 ft | 397 kts | 297° |
| 2026-04-21 13:32 | 39.76170 | -1.11122 | 29138 ft | 400 kts | 297° |
| 2026-04-21 13:32 | 39.77528 | -1.14241 | 29616 ft | 404 kts | 297° |
| 2026-04-21 13:32 | 39.78909 | -1.17417 | 30107 ft | 406 kts | 297° |
| 2026-04-21 13:33 | 39.80302 | -1.20625 | 30588 ft | 409 kts | 297° |
| 2026-04-21 13:33 | 39.81718 | -1.23887 | 31117 ft | 411 kts | 297° |
| 2026-04-21 13:33 | 39.83105 | -1.27088 | 31628 ft | 413 kts | 296° |
| 2026-04-21 13:33 | 39.84508 | -1.30327 | 31973 ft | 408 kts | 296° |
| 2026-04-21 13:34 | 39.85914 | -1.33580 | 32002 ft | 421 kts | 296° |
| 2026-04-21 13:34 | 39.87369 | -1.36950 | 32015 ft | 432 kts | 296° |
| 2026-04-21 13:34 | 39.90379 | -1.43926 | 32012 ft | 444 kts | 297° |
| 2026-04-21 13:35 | 39.93379 | -1.50897 | 32023 ft | 443 kts | 296° |
| 2026-04-21 13:35 | 39.96395 | -1.57920 | 32018 ft | 443 kts | 296° |
| 2026-04-21 13:36 | 39.99400 | -1.64936 | 32007 ft | 444 kts | 297° |
| 2026-04-21 13:36 | 40.02393 | -1.71938 | 32006 ft | 444 kts | 296° |
| 2026-04-21 13:37 | 40.05377 | -1.78936 | 32004 ft | 445 kts | 296° |
| 2026-04-21 13:37 | 40.08394 | -1.86028 | 32004 ft | 444 kts | 296° |
| 2026-04-21 13:38 | 40.11382 | -1.93067 | 31997 ft | 444 kts | 296° |
| 2026-04-21 13:38 | 40.14353 | -2.00082 | 31997 ft | 444 kts | 296° |
| 2026-04-21 13:39 | 40.17357 | -2.07132 | 31994 ft | 446 kts | 296° |
| 2026-04-21 13:39 | 40.20366 | -2.14200 | 31987 ft | 444 kts | 296° |
| 2026-04-21 13:40 | 40.23346 | -2.21270 | 31984 ft | 444 kts | 296° |
| 2026-04-21 13:40 | 40.26308 | -2.28336 | 31973 ft | 446 kts | 295° |
| 2026-04-21 13:41 | 40.29268 | -2.35412 | 31970 ft | 446 kts | 296° |
| 2026-04-21 13:41 | 40.32238 | -2.42528 | 31956 ft | 448 kts | 296° |
| 2026-04-21 13:42 | 40.35219 | -2.49688 | 31949 ft | 447 kts | 296° |
| 2026-04-21 13:42 | 40.38126 | -2.56792 | 31946 ft | 446 kts | 294° |
| 2026-04-21 13:43 | 40.40982 | -2.64063 | 31937 ft | 446 kts | 294° |
| 2026-04-21 13:43 | 40.43804 | -2.71256 | 31939 ft | 447 kts | 294° |
| 2026-04-21 13:44 | 40.46677 | -2.78596 | 32199 ft | 455 kts | 294° |
| 2026-04-21 13:44 | 40.48110 | -2.82260 | 32758 ft | 453 kts | 293° |
| 2026-04-21 13:44 | 40.49530 | -2.85896 | 33504 ft | 447 kts | 293° |
| 2026-04-21 13:45 | 40.50941 | -2.89517 | 34256 ft | 441 kts | 293° |
| 2026-04-21 13:45 | 40.52328 | -2.93077 | 34951 ft | 437 kts | 292° |
| 2026-04-21 13:45 | 40.53694 | -2.96591 | 35465 ft | 434 kts | 292° |
| 2026-04-21 13:45 | 40.55060 | -3.00109 | 35848 ft | 432 kts | 293° |
| 2026-04-21 13:46 | 40.57771 | -3.07100 | 35932 ft | 432 kts | 292° |
| 2026-04-21 13:46 | 40.60507 | -3.14175 | 35932 ft | 431 kts | 292° |
| 2026-04-21 13:47 | 40.63198 | -3.21150 | 35923 ft | 433 kts | 292° |
| 2026-04-21 13:47 | 40.65922 | -3.28225 | 35916 ft | 432 kts | 292° |
| 2026-04-21 13:48 | 40.68641 | -3.35304 | 36053 ft | 440 kts | 292° |
| 2026-04-21 13:48 | 40.70031 | -3.38930 | 36403 ft | 440 kts | 292° |
| 2026-04-21 13:48 | 40.71385 | -3.42467 | 36876 ft | 436 kts | 292° |
| 2026-04-21 13:49 | 40.72734 | -3.45993 | 37465 ft | 433 kts | 292° |
| 2026-04-21 13:49 | 40.74091 | -3.49546 | 37988 ft | 431 kts | 292° |
| 2026-04-21 13:49 | 40.75421 | -3.53032 | 38431 ft | 431 kts | 292° |
| 2026-04-21 13:49 | 40.76771 | -3.56576 | 38837 ft | 431 kts | 292° |
| 2026-04-21 13:50 | 40.78102 | -3.60074 | 39177 ft | 431 kts | 292° |
| 2026-04-21 13:50 | 40.79456 | -3.63635 | 39512 ft | 431 kts | 292° |
| 2026-04-21 13:50 | 40.80787 | -3.67140 | 39857 ft | 431 kts | 291° |
| 2026-04-21 13:50 | 40.82117 | -3.70648 | 39931 ft | 429 kts | 291° |
| 2026-04-21 13:51 | 40.84769 | -3.77654 | 39964 ft | 429 kts | 291° |
| 2026-04-21 13:51 | 40.87434 | -3.84714 | 39987 ft | 431 kts | 292° |
| 2026-04-21 13:52 | 40.90093 | -3.91770 | 39983 ft | 431 kts | 292° |
| 2026-04-21 13:52 | 40.92763 | -3.98875 | 39992 ft | 432 kts | 292° |
| 2026-04-21 13:53 | 40.95423 | -4.05971 | 39986 ft | 433 kts | 291° |
| 2026-04-21 13:53 | 40.98085 | -4.13088 | 39963 ft | 431 kts | 291° |
| 2026-04-21 13:54 | 41.00723 | -4.20158 | 39977 ft | 431 kts | 291° |
| 2026-04-21 13:54 | 41.03382 | -4.27297 | 39958 ft | 430 kts | 291° |
| 2026-04-21 13:55 | 41.06020 | -4.34393 | 39949 ft | 430 kts | 291° |
| 2026-04-21 13:55 | 41.08655 | -4.41500 | 39954 ft | 431 kts | 291° |
| 2026-04-21 13:56 | 41.11279 | -4.48594 | 39927 ft | 429 kts | 291° |
| 2026-04-21 13:56 | 41.13910 | -4.55724 | 39924 ft | 432 kts | 291° |
| 2026-04-21 13:57 | 41.16534 | -4.62853 | 39916 ft | 432 kts | 290° |
| 2026-04-21 13:57 | 41.19141 | -4.69960 | 39899 ft | 429 kts | 290° |
| 2026-04-21 13:58 | 41.21730 | -4.77036 | 39899 ft | 430 kts | 290° |
| 2026-04-21 13:58 | 41.24334 | -4.84168 | 39893 ft | 430 kts | 290° |
| 2026-04-21 13:59 | 41.26930 | -4.91299 | 39895 ft | 431 kts | 290° |
| 2026-04-21 13:59 | 41.29530 | -4.98455 | 39906 ft | 428 kts | 290° |
| 2026-04-21 14:00 | 41.32104 | -5.05561 | 39904 ft | 429 kts | 290° |
| 2026-04-21 14:00 | 41.34674 | -5.12672 | 39902 ft | 428 kts | 289° |
| 2026-04-21 14:01 | 41.37258 | -5.19840 | 39895 ft | 433 kts | 289° |
| 2026-04-21 14:01 | 41.39843 | -5.27028 | 39889 ft | 431 kts | 289° |
| 2026-04-21 14:02 | 41.42419 | -5.34212 | 39887 ft | 432 kts | 289° |
| 2026-04-21 14:03 | 41.46292 | -5.45043 | 39877 ft | 434 kts | 289° |
| 2026-04-21 14:03 | 41.48870 | -5.52273 | 39867 ft | 428 kts | 289° |
| 2026-04-21 14:04 | 41.52082 | -5.58802 | 39877 ft | 429 kts | 308° |
| 2026-04-21 14:04 | 41.54326 | -5.61473 | 39872 ft | 441 kts | 318° |
| 2026-04-21 14:04 | 41.56871 | -5.63837 | 39876 ft | 446 kts | 323° |
| 2026-04-21 14:05 | 41.62575 | -5.66916 | 39794 ft | 437 kts | 343° |
| 2026-04-21 14:05 | 41.65545 | -5.67411 | 39633 ft | 428 kts | 354° |
| 2026-04-21 14:05 | 41.68471 | -5.67266 | 39372 ft | 418 kts | 358° |
| 2026-04-21 14:05 | 41.71342 | -5.67359 | 39034 ft | 405 kts | 350° |
| 2026-04-21 14:06 | 41.74081 | -5.67727 | 38665 ft | 396 kts | 348° |
| 2026-04-21 14:06 | 41.76781 | -5.68163 | 38254 ft | 389 kts | 348° |
| 2026-04-21 14:06 | 41.79448 | -5.68621 | 37790 ft | 383 kts | 347° |
| 2026-04-21 14:06 | 41.82091 | -5.69084 | 37275 ft | 378 kts | 347° |
| 2026-04-21 14:07 | 41.84664 | -5.69538 | 36812 ft | 374 kts | 347° |
| 2026-04-21 14:07 | 41.87228 | -5.69991 | 36418 ft | 370 kts | 347° |
| 2026-04-21 14:07 | 41.89754 | -5.70438 | 36010 ft | 367 kts | 347° |
| 2026-04-21 14:07 | 41.92291 | -5.70888 | 35587 ft | 364 kts | 347° |
| 2026-04-21 14:08 | 41.94787 | -5.71331 | 35166 ft | 362 kts | 348° |
| 2026-04-21 14:08 | 41.97281 | -5.71775 | 34686 ft | 360 kts | 347° |
| 2026-04-21 14:08 | 41.99720 | -5.72210 | 34186 ft | 358 kts | 348° |
| 2026-04-21 14:08 | 42.02188 | -5.72651 | 33696 ft | 355 kts | 347° |
| 2026-04-21 14:09 | 42.04622 | -5.73087 | 33209 ft | 353 kts | 347° |
| 2026-04-21 14:09 | 42.07038 | -5.73520 | 32730 ft | 350 kts | 348° |
| 2026-04-21 14:09 | 42.09451 | -5.73952 | 32252 ft | 348 kts | 348° |
| 2026-04-21 14:09 | 42.11849 | -5.74381 | 31772 ft | 345 kts | 348° |
| 2026-04-21 14:10 | 42.14201 | -5.74804 | 31291 ft | 342 kts | 349° |
| 2026-04-21 14:10 | 42.16539 | -5.75224 | 30809 ft | 340 kts | 349° |
| 2026-04-21 14:10 | 42.18873 | -5.75642 | 30327 ft | 338 kts | 349° |
| 2026-04-21 14:10 | 42.21197 | -5.76060 | 29854 ft | 335 kts | 349° |
| 2026-04-21 14:11 | 42.23492 | -5.76473 | 29393 ft | 333 kts | 349° |
| 2026-04-21 14:11 | 42.25779 | -5.76886 | 28938 ft | 331 kts | 349° |
| 2026-04-21 14:11 | 42.28053 | -5.77295 | 28485 ft | 328 kts | 349° |
| 2026-04-21 14:11 | 42.30299 | -5.77698 | 28033 ft | 326 kts | 349° |
| 2026-04-21 14:12 | 42.32522 | -5.78098 | 27588 ft | 324 kts | 350° |
| 2026-04-21 14:12 | 42.34744 | -5.78498 | 27136 ft | 322 kts | 350° |
| 2026-04-21 14:12 | 42.36939 | -5.78892 | 26699 ft | 320 kts | 350° |
| 2026-04-21 14:12 | 42.39159 | -5.79292 | 26261 ft | 318 kts | 350° |
| 2026-04-21 14:13 | 42.41340 | -5.79685 | 25828 ft | 316 kts | 350° |
| 2026-04-21 14:13 | 42.43498 | -5.80075 | 25407 ft | 314 kts | 351° |
| 2026-04-21 14:13 | 42.45633 | -5.80460 | 24998 ft | 312 kts | 351° |
| 2026-04-21 14:13 | 42.47769 | -5.80846 | 24573 ft | 310 kts | 351° |
| 2026-04-21 14:14 | 42.49893 | -5.81230 | 24145 ft | 308 kts | 351° |
| 2026-04-21 14:14 | 42.52018 | -5.81614 | 23722 ft | 305 kts | 351° |
| 2026-04-21 14:14 | 42.54104 | -5.81992 | 23333 ft | 302 kts | 351° |
| 2026-04-21 14:14 | 42.56192 | -5.82370 | 22922 ft | 301 kts | 351° |
| 2026-04-21 14:15 | 42.58235 | -5.82740 | 22543 ft | 298 kts | 351° |
| 2026-04-21 14:15 | 42.60287 | -5.83112 | 22150 ft | 296 kts | 351° |
| 2026-04-21 14:15 | 42.62331 | -5.83483 | 21764 ft | 294 kts | 351° |
| 2026-04-21 14:15 | 42.64326 | -5.83845 | 21392 ft | 292 kts | 351° |
| 2026-04-21 14:16 | 42.66339 | -5.84211 | 21016 ft | 290 kts | 351° |
| 2026-04-21 14:16 | 42.68342 | -5.84575 | 20642 ft | 288 kts | 351° |
| 2026-04-21 14:16 | 42.70321 | -5.84935 | 20282 ft | 286 kts | 351° |
| 2026-04-21 14:16 | 42.72275 | -5.85292 | 19924 ft | 284 kts | 351° |
| 2026-04-21 14:17 | 42.74206 | -5.85643 | 19553 ft | 282 kts | 351° |
| 2026-04-21 14:17 | 42.76162 | -5.86001 | 19190 ft | 280 kts | 351° |
| 2026-04-21 14:17 | 42.78074 | -5.86350 | 18841 ft | 279 kts | 350° |
| 2026-04-21 14:17 | 42.80001 | -5.86703 | 18492 ft | 277 kts | 351° |
| 2026-04-21 14:18 | 42.81897 | -5.87050 | 18133 ft | 275 kts | 350° |
| 2026-04-21 14:18 | 42.83766 | -5.87393 | 17786 ft | 273 kts | 351° |
| 2026-04-21 14:18 | 42.85658 | -5.87741 | 17444 ft | 271 kts | 351° |
| 2026-04-21 14:18 | 42.87528 | -5.88064 | 17102 ft | 270 kts | 351° |
| 2026-04-21 14:19 | 42.89383 | -5.88377 | 16768 ft | 268 kts | 351° |
| 2026-04-21 14:19 | 42.91223 | -5.88687 | 16440 ft | 267 kts | 351° |
| 2026-04-21 14:19 | 42.93035 | -5.88992 | 16107 ft | 265 kts | 351° |
| 2026-04-21 14:19 | 42.94861 | -5.89300 | 15770 ft | 263 kts | 351° |
| 2026-04-21 14:20 | 42.96674 | -5.89607 | 15420 ft | 262 kts | 351° |
| 2026-04-21 14:20 | 42.98478 | -5.89911 | 15074 ft | 261 kts | 351° |
| 2026-04-21 14:20 | 43.00266 | -5.90214 | 14746 ft | 259 kts | 352° |
| 2026-04-21 14:20 | 43.02047 | -5.90515 | 14399 ft | 257 kts | 352° |
| 2026-04-21 14:21 | 43.03824 | -5.90815 | 14048 ft | 256 kts | 352° |
| 2026-04-21 14:21 | 43.05587 | -5.91143 | 13707 ft | 254 kts | 341° |
| 2026-04-21 14:21 | 43.07095 | -5.92267 | 13350 ft | 247 kts | 319° |
| 2026-04-21 14:21 | 43.08430 | -5.93687 | 13015 ft | 246 kts | 318° |
| 2026-04-21 14:22 | 43.09772 | -5.95133 | 12670 ft | 245 kts | 317° |
| 2026-04-21 14:22 | 43.11100 | -5.96573 | 12323 ft | 244 kts | 317° |
| 2026-04-21 14:22 | 43.12431 | -5.98020 | 11980 ft | 243 kts | 317° |
| 2026-04-21 14:22 | 43.13737 | -5.99444 | 11628 ft | 243 kts | 317° |
| 2026-04-21 14:23 | 43.15065 | -6.00893 | 11277 ft | 242 kts | 317° |
| 2026-04-21 14:23 | 43.16362 | -6.02309 | 10947 ft | 241 kts | 317° |
| 2026-04-21 14:23 | 43.17666 | -6.03735 | 10611 ft | 241 kts | 317° |
| 2026-04-21 14:23 | 43.18974 | -6.05165 | 10275 ft | 240 kts | 316° |
| 2026-04-21 14:24 | 43.20284 | -6.06599 | 9950 ft | 239 kts | 317° |
| 2026-04-21 14:24 | 43.21582 | -6.08024 | 9630 ft | 239 kts | 316° |
| 2026-04-21 14:24 | 43.22864 | -6.09433 | 9308 ft | 238 kts | 316° |
| 2026-04-21 14:24 | 43.24157 | -6.10855 | 8981 ft | 237 kts | 316° |
| 2026-04-21 14:25 | 43.25440 | -6.12267 | 8662 ft | 236 kts | 317° |
| 2026-04-21 14:25 | 43.26708 | -6.13663 | 8342 ft | 236 kts | 317° |
| 2026-04-21 14:25 | 43.27985 | -6.15069 | 8036 ft | 236 kts | 317° |
| 2026-04-21 14:25 | 43.29278 | -6.16497 | 7991 ft | 253 kts | 317° |
| 2026-04-21 14:26 | 43.30751 | -6.18123 | 8094 ft | 288 kts | 318° |
| 2026-04-21 14:26 | 43.32396 | -6.19937 | 8172 ft | 322 kts | 319° |
| 2026-04-21 14:26 | 43.34232 | -6.21959 | 8227 ft | 354 kts | 319° |
| 2026-04-21 14:26 | 43.36230 | -6.24163 | 8287 ft | 383 kts | 319° |
| 2026-04-21 14:27 | 43.38378 | -6.26534 | 8301 ft | 410 kts | 319° |
| 2026-04-21 14:27 | 43.40593 | -6.28979 | 8293 ft | 393 kts | 319° |
| 2026-04-21 14:27 | 43.42624 | -6.31224 | 8242 ft | 365 kts | 319° |
| 2026-04-21 14:27 | 43.44547 | -6.33353 | 7930 ft | 349 kts | 319° |
| 2026-04-21 14:28 | 43.46408 | -6.35417 | 7569 ft | 336 kts | 319° |
| 2026-04-21 14:28 | 43.48201 | -6.37407 | 7204 ft | 326 kts | 319° |
| 2026-04-21 14:28 | 43.49943 | -6.39299 | 6835 ft | 317 kts | 325° |
| 2026-04-21 14:28 | 43.51994 | -6.40261 | 6517 ft | 309 kts | 358° |
| 2026-04-21 14:29 | 43.54037 | -6.39869 | 6161 ft | 294 kts | 18° |
| 2026-04-21 14:29 | 43.55959 | -6.39102 | 5816 ft | 280 kts | 19° |
| 2026-04-21 14:29 | 43.57776 | -6.38335 | 5521 ft | 266 kts | 20° |
| 2026-04-21 14:29 | 43.59511 | -6.37585 | 5254 ft | 257 kts | 20° |
| 2026-04-21 14:30 | 43.61194 | -6.36848 | 5036 ft | 248 kts | 21° |
| 2026-04-21 14:30 | 43.62545 | -6.35561 | 4705 ft | 233 kts | 59° |
| 2026-04-21 14:30 | 43.62956 | -6.33585 | 4441 ft | 213 kts | 97° |
| 2026-04-21 14:30 | 43.62712 | -6.31612 | 4138 ft | 204 kts | 105° |
| 2026-04-21 14:31 | 43.62380 | -6.29731 | 3869 ft | 197 kts | 107° |
| 2026-04-21 14:31 | 43.62029 | -6.27969 | 3638 ft | 190 kts | 108° |
| 2026-04-21 14:31 | 43.61661 | -6.26239 | 3423 ft | 183 kts | 109° |
| 2026-04-21 14:31 | 43.61298 | -6.24589 | 3224 ft | 177 kts | 109° |
| 2026-04-21 14:32 | 43.60939 | -6.22995 | 3030 ft | 172 kts | 109° |
| 2026-04-21 14:32 | 43.60587 | -6.21463 | 2839 ft | 166 kts | 109° |
| 2026-04-21 14:32 | 43.60239 | -6.19963 | 2644 ft | 162 kts | 109° |
| 2026-04-21 14:32 | 43.59900 | -6.18510 | 2459 ft | 159 kts | 109° |
| 2026-04-21 14:33 | 43.59557 | -6.17044 | 2339 ft | 155 kts | 109° |
| 2026-04-21 14:33 | 43.59231 | -6.15655 | 2142 ft | 156 kts | 108° |
| 2026-04-21 14:33 | 43.58894 | -6.14222 | 1913 ft | 155 kts | 108° |
| 2026-04-21 14:33 | 43.58564 | -6.12823 | 1679 ft | 155 kts | 110° |
| 2026-04-21 14:34 | 43.58233 | -6.11415 | 1443 ft | 154 kts | 110° |
| 2026-04-21 14:34 | 43.57904 | -6.10021 | 1229 ft | 152 kts | 108° |
| 2026-04-21 14:34 | 43.57583 | -6.08661 | 1015 ft | 145 kts | 107° |
| 2026-04-21 14:34 | 43.57284 | -6.07396 | 835 ft | 134 kts | 109° |
| 2026-04-21 14:35 | 43.57006 | -6.06218 | 616 ft | 125 kts | 108° |
| 2026-04-21 14:35 | 43.56747 | -6.05112 | 438 ft | 117 kts | 106° |
| 2026-04-21 14:35 | 43.56506 | -6.04095 | 407 ft | 94 kts | 107° |
| 2026-04-21 14:35 | 43.56401 | -6.03648 | 419 ft | 27 kts | 109° |
| 2026-04-21 14:36 | 43.56342 | -6.03398 | 422 ft | 27 kts | 110° |
| 2026-04-21 14:36 | 43.56282 | -6.03193 | 421 ft | 14 kts | 133° |
| 2026-04-21 14:36 | 43.56226 | -6.03169 | 423 ft | 6 kts | 191° |
| 2026-04-21 14:36 | 43.56184 | -6.03187 | 425 ft | 8 kts | 199° |
| 2026-04-21 14:37 | 43.56085 | -6.03233 | 427 ft | 16 kts | 201° |
| 2026-04-21 14:37 | 43.56018 | -6.03265 | 430 ft | 1 kts | 221° |